Lake Charles, LA

8:54 PM CDT on September 22, 2014 (GMT -0500)
Lake Charles Regional | Change Station
CLOSE
Current Station
Airport
Location: Lake Charles Regional,
Elevation: 7 ft
Nearby Weather Stations

Elev 7 ft 30.13 °N, 93.22 °W | Updated 1 hour ago

Clear
Clear
79 °F
Feels Like 79 °F
N
12
Wind Variable Wind from NNE

Today
High -- | Low -- °F
--% Chance of Precip.
Yesterday
High -- | Low -- °F
Precip. -- in
7:01 AM 7:09 PM
Waning Crescent, 1% visible
Pressure 30.06 in
Visibility 10.0 miles
Clouds Clear
Dew Point 65 °F
Humidity 62%
Rainfall 0.00 in
Snow Depth Not available.
UV 0 out of 12
Pollen 9.90 out of 12
Air Quality Not available.
Flu Activity Not available.
METAR KLCH 230053Z 03010KT 10SM CLR 26/18 A3003 RMK AO2 SLP177 T02610183

More Conditions Fewer Conditions

Pressure 30.06 in
Visibility 10.0 miles
Clouds Clear
Dew Point 65 °F
Humidity 62%
Rainfall 0.00 in
Snow Depth Not available.
UV 0 out of 12
Pollen 9.90 out of 12
Air Quality Not available.
Flu Activity Not available.
METAR KLCH 230053Z 03010KT 10SM CLR 26/18 A3003 RMK AO2 SLP177 T02610183

More Conditions Fewer Conditions

10-Day Weather Forecast

Almanac

Astronomy

Sep. 22, 2014 Rise Set
Actual Time 7:01 AM CDT 7:09 PM CDT
Civil Twilight 6:37 AM CDT 7:33 PM CDT
Nautical Twilight 6:09 AM CDT 8:01 PM CDT
Astronomical Twilight 5:41 AM CDT 8:29 PM CDT
Moon 5:35 AM CDT (9/22) 6:14 PM CDT (9/22)
Length of Visible Light 12h 55m
Length of Day
12h 08m
Tomorrow will be 1m 48s shorter.
Waning Crescent, 1% of the Moon is Illuminated
Today
Waning Crescent
Sep 24
New
Oct 1
First Quarter
Oct 8
Full
Oct 15
Last Quarter

Today's Extremes

State Highs State Lows

Community

WunderPhotos

Upload Photos

1,755,583 photos uploaded!

Nearby

Snow Depth

Station Depth Elevation
No new snow has been reported.

Earthquake Activity

City Distance Mag. Time & Date
No recent earthquake activity has been reported nearby.
Minimum magnitude displayed is 2.5.

Coastal Water Temperatures

Place Temperature
Calcasieu Pass, LA 82.9 °F
Sabine Pass North, TX 84.0 °F
Port Arthur, TX 84.9 °F
Fresh Water Canal Locks, LA 84.0 °F
Rollover Pass, TX 84.0 °F

Nearby Weather Stations